createdAt,value
2019-03-23T00:01:47.772Z,72.48
2019-03-23T00:06:55.460Z,66.38
2019-03-23T00:12:03.187Z,56.43
2019-03-23T00:17:10.958Z,57.39
2019-03-23T00:22:18.553Z,52.74
2019-03-23T00:27:26.288Z,50.79
2019-03-23T00:32:33.969Z,47.79
2019-03-23T00:37:41.753Z,51.93
2019-03-23T00:42:50.217Z,54.57
2019-03-23T00:47:57.837Z,59.32
2019-03-23T00:53:05.600Z,67.89
2019-03-23T00:58:13.617Z,67.15
2019-03-23T01:03:21.341Z,67.96
2019-03-23T01:08:28.994Z,64.11
2019-03-23T01:13:36.712Z,71.84
2019-03-23T01:18:44.333Z,73.96
2019-03-23T01:23:51.978Z,76.74
2019-03-23T01:28:59.717Z,69.92
2019-03-23T01:34:07.455Z,63.08
2019-03-23T01:39:15.112Z,71.32
2019-03-23T01:44:22.669Z,65.72
2019-03-23T01:49:30.303Z,67.91
2019-03-23T01:54:38.091Z,72.09
2019-03-23T01:59:45.713Z,68.54
2019-03-23T02:04:53.411Z,70.65
2019-03-23T02:10:01.134Z,71.42
2019-03-23T02:15:08.846Z,74.02
2019-03-23T02:20:16.616Z,79.69
2019-03-23T02:25:24.442Z,79.59
2019-03-23T02:30:32.088Z,80.27
2019-03-23T02:35:39.794Z,79.00
2019-03-23T02:40:47.738Z,70.94
2019-03-23T02:45:55.419Z,75.36
2019-03-23T02:51:03.172Z,73.34
2019-03-23T02:56:10.911Z,75.49
2019-03-23T03:01:18.536Z,136.59
2019-03-23T03:06:26.335Z,78.24
2019-03-23T03:11:33.961Z,74.71
2019-03-23T03:16:41.539Z,70.19
2019-03-23T03:21:49.363Z,68.91
2019-03-23T03:26:57.030Z,66.08
2019-03-23T03:32:04.855Z,68.87
2019-03-23T03:37:12.537Z,67.66
2019-03-23T03:42:20.233Z,69.91
2019-03-23T03:47:27.837Z,67.35
2019-03-23T03:52:35.909Z,69.61
2019-03-23T03:57:43.621Z,71.26
2019-03-23T04:02:51.353Z,71.50
2019-03-23T04:08:10.418Z,69.13
2019-03-23T04:13:06.233Z,125.19
2019-03-23T04:18:13.898Z,68.88
2019-03-23T04:23:21.606Z,71.86
2019-03-23T04:28:29.383Z,72.11
2019-03-23T04:33:37.140Z,73.71
2019-03-23T04:38:44.892Z,69.27
2019-03-23T04:43:52.529Z,69.97
2019-03-23T04:49:00.266Z,72.91
2019-03-23T04:54:07.889Z,70.93
2019-03-23T04:59:15.565Z,69.30
2019-03-23T05:04:23.301Z,70.41
2019-03-23T05:09:31.072Z,69.40
2019-03-23T05:14:38.706Z,66.88
2019-03-23T05:19:46.545Z,66.41
2019-03-23T05:24:54.262Z,69.05
2019-03-23T05:30:02.112Z,67.81
2019-03-23T05:35:09.827Z,64.80
2019-03-23T05:40:18.452Z,65.99
2019-03-23T05:45:26.144Z,63.96
2019-03-23T05:50:33.926Z,63.70
2019-03-23T05:55:41.645Z,64.30
2019-03-23T06:00:49.485Z,62.98
2019-03-23T06:05:57.177Z,62.85
2019-03-23T06:11:05.651Z,64.47
2019-03-23T06:16:13.341Z,68.31
2019-03-23T06:21:21.066Z,67.09
2019-03-23T06:26:28.782Z,65.51
2019-03-23T06:31:55.383Z,68.25
2019-03-23T06:37:03.029Z,68.22
2019-03-23T06:42:11.730Z,64.07
2019-03-23T06:47:19.370Z,66.59
2019-03-23T06:52:27.083Z,60.24
2019-03-23T06:57:34.716Z,68.16
2019-03-23T07:02:42.488Z,63.41
2019-03-23T07:07:50.097Z,63.98
2019-03-23T07:12:57.915Z,59.76
2019-03-23T07:18:05.610Z,58.30
2019-03-23T07:23:13.509Z,60.92
2019-03-23T07:28:21.101Z,62.53
2019-03-23T07:33:28.943Z,56.55
2019-03-23T07:38:36.533Z,60.64
2019-03-23T07:43:44.250Z,56.72
2019-03-23T07:48:51.987Z,58.28
2019-03-23T07:53:59.757Z,57.05
2019-03-23T07:59:07.462Z,57.99
2019-03-23T08:04:15.254Z,56.09
2019-03-23T08:09:23.618Z,57.57
2019-03-23T08:14:30.242Z,54.30
2019-03-23T08:19:37.949Z,50.15
2019-03-23T08:24:45.614Z,53.34
2019-03-23T08:29:53.197Z,55.37
2019-03-23T08:35:00.945Z,51.67
2019-03-23T08:40:08.680Z,52.08
2019-03-23T08:45:16.381Z,51.70
2019-03-23T08:50:24.013Z,50.53
2019-03-23T08:55:31.754Z,53.79
2019-03-23T09:00:39.610Z,60.98
2019-03-23T09:05:47.065Z,56.06
2019-03-23T09:10:55.081Z,49.57
2019-03-23T09:16:02.819Z,48.94
2019-03-23T09:21:12.894Z,90.14
2019-03-23T09:26:17.968Z,46.23
2019-03-23T09:31:25.730Z,45.66
2019-03-23T09:36:33.427Z,45.24
2019-03-23T09:41:41.696Z,47.90
2019-03-23T09:46:49.401Z,47.36
2019-03-23T09:51:57.058Z,46.45
2019-03-23T09:57:04.706Z,45.15
2019-03-23T10:02:12.582Z,47.12
2019-03-23T10:07:20.583Z,44.20
2019-03-23T10:12:28.409Z,47.63
2019-03-23T10:17:36.119Z,46.97
2019-03-23T10:22:43.890Z,45.60
2019-03-23T10:27:51.538Z,48.51
2019-03-23T10:32:59.333Z,46.58
2019-03-23T10:38:07.096Z,45.91
2019-03-23T10:43:14.862Z,49.72
2019-03-23T10:48:22.890Z,47.07
2019-03-23T10:53:30.744Z,51.50
2019-03-23T10:58:38.445Z,47.52
2019-03-23T11:03:46.101Z,44.55
2019-03-23T11:08:53.852Z,47.43
2019-03-23T11:14:01.493Z,43.53
2019-03-23T11:19:13.308Z,45.83
2019-03-23T11:24:16.496Z,46.30
2019-03-23T11:29:24.121Z,45.69
2019-03-23T11:34:31.864Z,44.89
2019-03-23T11:39:39.506Z,44.31
2019-03-23T11:44:47.308Z,45.51
2019-03-23T11:49:54.921Z,45.13
2019-03-23T11:55:03.385Z,46.57
2019-03-23T12:00:11.373Z,42.83
2019-03-23T12:05:19.809Z,44.70
2019-03-23T12:10:28.316Z,47.17
2019-03-23T12:15:35.985Z,46.32
2019-03-23T12:20:43.681Z,44.39
2019-03-23T12:25:51.425Z,45.05
2019-03-23T12:30:59.065Z,43.77
2019-03-23T12:36:06.944Z,42.06
2019-03-23T12:41:22.774Z,40.08
2019-03-23T12:46:21.986Z,31.69
2019-03-23T12:51:29.610Z,28.49
2019-03-23T12:56:37.497Z,28.44
2019-03-23T13:01:45.239Z,24.37
2019-03-23T13:06:52.990Z,20.10
2019-03-23T13:12:00.601Z,15.59
2019-03-23T13:17:08.273Z,10.01
2019-03-23T13:22:16.005Z,11.74
2019-03-23T13:27:23.674Z,10.04
2019-03-23T13:32:31.363Z,12.96
2019-03-23T13:37:39.201Z,9.40
2019-03-23T13:42:46.982Z,9.55
2019-03-23T13:47:55.047Z,11.33
2019-03-23T13:53:02.693Z,10.54
2019-03-23T13:58:10.453Z,8.49
2019-03-23T14:03:18.198Z,9.21
2019-03-23T14:08:26.047Z,8.99
2019-03-23T14:13:33.666Z,9.81
2019-03-23T14:18:41.633Z,8.32
2019-03-23T14:23:49.584Z,5.94
2019-03-23T14:28:57.434Z,5.34
2019-03-23T14:34:05.049Z,7.55
2019-03-23T14:39:12.810Z,6.18
2019-03-23T14:44:20.433Z,5.62
2019-03-23T14:49:28.055Z,7.83
2019-03-23T14:54:35.762Z,6.93
2019-03-23T14:59:43.610Z,7.21
2019-03-23T15:04:51.326Z,8.60
2019-03-23T15:09:59.198Z,9.57
2019-03-23T15:15:07.010Z,9.67
2019-03-23T15:20:14.762Z,5.78
2019-03-23T15:25:22.380Z,8.42
2019-03-23T15:30:30.230Z,8.41
2019-03-23T15:35:38.055Z,9.18
2019-03-23T15:40:46.204Z,8.82
2019-03-23T15:45:53.798Z,9.04
2019-03-23T15:51:01.493Z,8.31
2019-03-23T15:56:09.144Z,12.33
2019-03-23T16:01:16.834Z,11.03
2019-03-23T16:06:24.584Z,11.78
2019-03-23T16:11:32.329Z,12.10
2019-03-23T16:16:40.385Z,8.24
2019-03-23T16:21:48.974Z,9.68
2019-03-23T16:26:56.694Z,8.09
2019-03-23T16:32:04.338Z,10.19
2019-03-23T16:37:12.034Z,10.12
2019-03-23T16:42:19.681Z,13.97
2019-03-23T16:47:27.382Z,12.59
2019-03-23T16:52:35.047Z,11.72
2019-03-23T16:57:42.693Z,8.63
2019-03-23T17:02:50.488Z,14.08
2019-03-23T17:07:58.494Z,20.40
2019-03-23T17:13:06.226Z,13.14
2019-03-23T17:18:14.298Z,10.69
2019-03-23T17:23:21.957Z,11.43
2019-03-23T17:28:29.588Z,12.41
2019-03-23T17:33:37.271Z,12.74
2019-03-23T17:38:44.930Z,11.00
2019-03-23T17:43:52.596Z,12.55
2019-03-23T17:49:00.185Z,12.95
2019-03-23T17:54:07.988Z,11.51
2019-03-23T17:59:15.757Z,10.89
2019-03-23T18:04:23.450Z,10.96
2019-03-23T18:09:31.084Z,11.51
2019-03-23T18:14:38.804Z,13.42
2019-03-23T18:19:46.494Z,13.17
2019-03-23T18:24:54.357Z,14.94
2019-03-23T18:30:02.117Z,13.89
2019-03-23T18:35:09.804Z,11.31
2019-03-23T18:40:17.444Z,12.23
2019-03-23T18:45:25.197Z,14.43
2019-03-23T18:50:32.813Z,11.59
2019-03-23T18:55:40.546Z,14.33
2019-03-23T19:00:48.335Z,12.88
2019-03-23T19:05:56.338Z,13.24
2019-03-23T19:11:04.057Z,13.60
2019-03-23T19:16:11.866Z,15.28
2019-03-23T19:21:19.491Z,13.37
2019-03-23T19:26:27.261Z,13.99
2019-03-23T19:31:34.869Z,13.58
2019-03-23T19:36:42.546Z,15.56
2019-03-23T19:41:50.192Z,17.60
2019-03-23T19:46:57.895Z,14.32
2019-03-23T19:52:05.487Z,17.93
2019-03-23T19:57:13.117Z,17.46
2019-03-23T20:02:20.802Z,18.70
2019-03-23T20:07:33.231Z,16.54
2019-03-23T20:12:36.543Z,16.56
2019-03-23T20:17:44.430Z,15.06
2019-03-23T20:22:52.058Z,14.78
2019-03-23T20:28:00.482Z,13.56
2019-03-23T20:33:18.721Z,13.52
2019-03-23T20:38:15.389Z,15.18
2019-03-23T20:43:23.121Z,15.07
2019-03-23T20:48:30.885Z,16.54
2019-03-23T20:53:38.566Z,14.81
2019-03-23T20:58:46.321Z,18.33
2019-03-23T21:03:54.022Z,13.79
2019-03-23T21:09:01.797Z,15.09
2019-03-23T21:14:19.613Z,14.08
2019-03-23T21:19:16.662Z,13.10
2019-03-23T21:24:24.446Z,12.83
2019-03-23T21:29:32.078Z,16.88
2019-03-23T21:34:39.749Z,14.93
2019-03-23T21:39:47.501Z,14.43
2019-03-23T21:44:55.213Z,14.04
2019-03-23T21:50:02.913Z,14.00
2019-03-23T21:55:10.593Z,15.70
2019-03-23T22:00:18.230Z,15.37
2019-03-23T22:05:26.115Z,14.22
2019-03-23T22:10:33.693Z,14.04
2019-03-23T22:15:41.406Z,15.46
2019-03-23T22:20:49.449Z,17.08
2019-03-23T22:25:57.218Z,14.90
2019-03-23T22:31:04.950Z,14.57
2019-03-23T22:36:12.701Z,15.22
2019-03-23T22:41:20.340Z,17.79
2019-03-23T22:46:28.032Z,17.84
2019-03-23T22:51:35.798Z,14.21
2019-03-23T22:56:43.527Z,17.31
2019-03-23T23:01:51.241Z,12.84
2019-03-23T23:06:58.909Z,16.18
2019-03-23T23:12:06.733Z,15.48
2019-03-23T23:17:14.392Z,14.63
2019-03-23T23:22:22.091Z,15.99
2019-03-23T23:27:29.725Z,15.98
2019-03-23T23:32:37.413Z,13.19
2019-03-23T23:37:45.125Z,14.10
2019-03-23T23:42:52.913Z,14.48
2019-03-23T23:48:00.601Z,14.28
2019-03-23T23:53:08.301Z,17.88
2019-03-23T23:58:15.965Z,15.98
